Detall de PIREP

Printer-friendly versionPDF version

[2013/12/30 12:33:00]
Flight IATA:CT1004
Pilot Number:026
Company ICAO:CAT
Aircraft Type:DC85/A
PAX:132
Aircraft Registration:PAX
Departing Airport: LSZH
Destination Airport: LIEA
Alternate Airport:LIEO
Online: VATSIM
Route:VEBIT T53 GERSA UN850 ODINA UM727 SRN UM858 AJO UM194 REVDO
Flight Level:F290
No Slew and time accel
No pause
Crash detect
Detect pilot in Cockpit between each 30 and 45 minutes
12:33 Zero fuel Weight: 179533 Lbs, Fuel Weight: 30002 Lbs
12:33 VATSIM:LSZH 301220Z VRB02KT 8000 FEW008 BKN012 03/00 Q1026 NOSIG
12:33 VATSIM:LIEA 301220Z 26005KT 210V300 9999 SCT040 13/06 Q1023
12:33 VOICE CATALONIAN / X-MAS CHARTER
12:38 Parking Brakes off
12:47 Take-off
12:47 Take off Weight: 208549 Lbs
12:47 Wind: 085º @ 004 Knots Heading: 277º
12:47 POS N47º 27´ 30´´ E008º 32´ 39´´
12:47 Gear Up: 159 Knots
12:47 Flaps:1 at 159 Knots
12:49 Flaps:0 at 219 Knots
13:02 Wind:074º@007 Knots Heading: 178º Ground Speed: 445 Knots Altitude 25702 ft
13:06 TOC
13:06 Fuel Weight: 23361 Lb
13:17 Wind:016º@019 Knots Heading: 169º Ground Speed: 486 Knots Altitude 29340 ft
13:31 TOD
13:31 Fuel Weight: 16780 Lb
13:32 Wind:026º@034 Knots Heading: 183º Ground Speed: 504 Knots Altitude 28369 ft
13:47 Wind:272º@006 Knots Heading: 197º Ground Speed: 296 Knots Altitude 6945 ft
13:51 Flaps:1 at 242 Knots
13:52 Gear Down: 218 Knots
13:52 Flaps:2 at 188 Knots
13:53 Flaps:3 at 174 Knots
13:53 Flaps:4 at 159 Knots
13:54 Flaps:5 at 145 Knots
13:54 TouchDown:Rate -170 ft/min Speed: 134 Knots
13:55 VATSIM:LIEA 301320Z 25006KT 200V330 9999 SCT040 14/07 Q1022
13:55 Land
13:55 Wind:300º@006 Knots
13:55 Heading: 205º
13:55 Flight Duration: 01:08
13:55 Landing Weight: 193834 Lbs
13:55 POS N40º 37´ 48´´ E008º 17´ 23´´
13:58 Parking brakes on
13:58 Block to Block Duration: 01:20
13:58 Final Fuel: 13928 Lbls
13:58 Spent Fuel: 16073 Lbls
13:58 Flight Length: 450 NM
13:58 TOD Land Length: 131 NM

Exportar CSV

Powered by Drupal - Modified by Danger4k